Time;durP1;ratioP1;P1;durP2;ratioP2;P2;SDS_P1;SDS_P2;PMS_P1;PMS_P2;Temp;Humidity;BMP_temperature;BMP_pressure;BME280_temperature;BME280_humidity;BME280_pressure;Samples;Min_cycle;Max_cycle;Signal;HPM_P1;HPM_P2
2020/12/06 00:02:16;;;;;;;31.10;27.83;;;;;;;4.48;96.32;98941.28;4702633;30;20072;-80
2020/12/06 00:05:20;;;;;;;31.58;28.25;;;;;;;4.37;96.30;98967.94;4711382;30;20060;-81
2020/12/06 00:08:25;;;;;;;32.38;28.95;;;;;;;4.31;96.32;98965.78;4702644;30;20064;-81
2020/12/06 00:11:29;;;;;;;31.35;28.05;;;;;;;4.27;96.81;98972.34;4711863;30;20065;-80
2020/12/06 00:14:33;;;;;;;32.40;29.02;;;;;;;4.32;96.75;98954.22;4702332;30;20066;-81
2020/12/06 00:17:38;;;;;;;31.15;27.85;;;;;;;4.36;97.04;98942.34;4711726;30;20072;-81
2020/12/06 00:20:43;;;;;;;31.73;28.52;;;;;;;4.37;97.01;98926.25;4702083;30;20505;-80
2020/12/06 00:23:48;;;;;;;32.70;29.13;;;;;;;4.39;96.88;98915.53;4711551;30;20064;-80
2020/12/06 00:26:55;;;;;;;33.58;29.27;;;;;;;4.36;97.24;98924.59;4701895;30;20057;-80
2020/12/06 00:30:00;;;;;;;33.33;29.77;;;;;;;4.41;97.44;98926.84;4702400;30;20060;-80
2020/12/06 00:33:05;;;;;;;31.13;27.73;;;;;;;4.37;97.48;98909.50;4711096;30;20057;-81
2020/12/06 00:36:13;;;;;;;30.58;27.38;;;;;;;4.41;97.20;98925.06;4702307;30;20065;-80
2020/12/06 00:39:18;;;;;;;32.83;29.27;;;;;;;4.47;97.27;98936.94;4711472;30;20505;-79
2020/12/06 00:42:22;;;;;;;31.00;27.70;;;;;;;4.46;97.21;98936.13;4701942;30;20396;-80
2020/12/06 00:45:26;;;;;;;32.13;28.25;;;;;;;4.48;96.82;98934.19;4701517;30;20123;-80
2020/12/06 00:48:31;;;;;;;30.92;27.70;;;;;;;4.46;96.99;98927.31;4701970;30;20076;-80
2020/12/06 00:51:36;;;;;;;32.83;29.40;;;;;;;4.49;96.77;98932.38;4711096;30;20522;-80
2020/12/06 00:54:41;;;;;;;33.40;29.45;;;;;;;4.36;96.70;98952.97;4711000;30;20056;-80
2020/12/06 00:57:46;;;;;;;31.70;28.40;;;;;;;4.38;97.27;98965.16;4701825;30;20061;-81
2020/12/06 01:00:50;;;;;;;30.42;27.35;;;;;;;4.38;96.90;98978.44;4701528;30;20077;-80
2020/12/06 01:03:54;;;;;;;28.83;25.77;;;;;;;4.34;97.24;98984.13;4701452;30;20422;-80
2020/12/06 01:07:03;;;;;;;31.70;27.23;;;;;;;4.42;97.18;98987.81;4701628;30;20078;-80
2020/12/06 01:10:09;;;;;;;30.48;27.35;;;;;;;4.45;96.93;99003.50;4701735;30;20064;-80
2020/12/06 01:13:13;;;;;;;31.63;28.27;;;;;;;4.46;97.16;98972.47;4701559;30;20076;-80
2020/12/06 01:16:18;;;;;;;30.42;27.10;;;;;;;4.51;96.84;98968.47;4701534;30;20414;-80
2020/12/06 01:19:22;;;;;;;29.48;26.48;;;;;;;4.59;96.83;98965.97;4701719;30;20061;-80
2020/12/06 01:22:27;;;;;;;28.42;24.85;;;;;;;4.61;96.61;98971.16;4700768;30;20076;-80
2020/12/06 01:25:31;;;;;;;30.90;27.55;;;;;;;4.51;96.32;98980.91;4710723;30;20061;-80
2020/12/06 01:28:36;;;;;;;29.45;26.35;;;;;;;4.52;96.70;98996.69;4701205;30;20134;-81
2020/12/06 01:31:48;;;;;;;30.10;26.70;;;;;;;4.59;96.23;98989.06;4701184;30;20074;-80
2020/12/06 01:34:52;;;;;;;30.92;27.42;;;;;;;4.57;96.50;98949.31;4701400;30;20081;-80
2020/12/06 01:37:57;;;;;;;34.42;29.92;;;;;;;4.53;96.66;98961.19;4701367;30;20390;-80
2020/12/06 01:41:01;;;;;;;34.55;30.75;;;;;;;4.57;96.50;98957.28;4701093;30;20065;-80
2020/12/06 01:44:05;;;;;;;33.35;28.73;;;;;;;4.60;96.38;98956.19;4710020;30;20383;-80
2020/12/06 01:47:10;;;;;;;37.20;30.20;;;;;;;4.56;96.64;98947.66;4700930;30;20057;-80
2020/12/06 01:50:15;;;;;;;38.50;31.60;;;;;;;4.56;96.37;98926.41;4710336;30;20060;-79
2020/12/06 01:53:21;;;;;;;42.08;30.40;;;;;;;4.54;96.86;98909.72;4700930;30;20057;-80
2020/12/06 01:56:26;;;;;;;39.90;32.17;;;;;;;4.51;96.65;98915.31;4710106;30;20064;-80
2020/12/06 01:59:31;;;;;;;44.40;34.38;;;;;;;4.55;96.60;98926.50;4701048;30;20497;-80
2020/12/06 02:02:35;;;;;;;43.95;33.50;;;;;;;4.55;96.53;98939.78;4710262;30;20060;-80
2020/12/06 02:05:40;;;;;;;45.50;34.33;;;;;;;4.54;96.74;98960.19;4700429;30;20061;-80
2020/12/06 02:08:44;;;;;;;46.60;36.17;;;;;;;4.47;96.95;98977.63;4700588;30;20057;-80
2020/12/06 02:11:49;;;;;;;47.10;33.80;;;;;;;4.53;96.98;98981.59;4700612;30;20065;-80
2020/12/06 02:14:53;;;;;;;50.08;34.70;;;;;;;4.61;97.18;98968.50;4700113;30;20332;-80
2020/12/06 02:17:57;;;;;;;53.47;32.83;;;;;;;4.56;96.87;98952.13;4700844;30;20074;-80
2020/12/06 02:21:02;;;;;;;55.10;34.10;;;;;;;4.55;96.87;98959.25;4708735;30;20072;-80
2020/12/06 02:24:07;;;;;;;55.75;32.67;;;;;;;4.58;97.30;98960.78;4700519;30;20056;-80
2020/12/06 02:27:13;;;;;;;52.00;32.92;;;;;;;4.57;97.53;98956.44;4700438;30;20490;-80
2020/12/06 02:30:17;;;;;;;64.40;36.63;;;;;;;4.60;97.54;98966.81;4709696;30;20064;-80
2020/12/06 02:33:22;;;;;;;56.47;34.08;;;;;;;4.58;97.48;98952.81;4700457;30;20061;-80
2020/12/06 02:36:26;;;;;;;51.63;35.22;;;;;;;4.60;97.51;98972.97;4700185;30;20075;-81
2020/12/06 02:39:31;;;;;;;56.08;34.50;;;;;;;4.53;97.30;98979.78;4700203;30;20081;-80
2020/12/06 02:42:35;;;;;;;56.35;34.40;;;;;;;4.56;97.56;98984.84;4709460;30;20069;-80
2020/12/06 02:45:39;;;;;;;56.78;34.63;;;;;;;4.57;98.02;98989.19;4700397;30;20068;-80
2020/12/06 02:48:44;;;;;;;53.03;33.65;;;;;;;4.64;97.82;98989.50;4700240;30;20061;-80
2020/12/06 02:51:48;;;;;;;53.67;35.47;;;;;;;4.64;97.79;98991.31;4700256;30;20053;-80
2020/12/06 02:54:53;;;;;;;54.85;35.03;;;;;;;4.60;97.69;98978.28;4700307;30;20078;-80
2020/12/06 02:57:57;;;;;;;61.55;35.78;;;;;;;4.59;97.57;98965.16;4700269;30;20067;-80
2020/12/06 03:01:02;;;;;;;66.15;34.67;;;;;;;4.49;97.60;98966.91;4700303;30;20064;-80
2020/12/06 03:04:06;;;;;;;66.07;36.15;;;;;;;4.47;98.01;98984.75;4709502;30;20398;-80
2020/12/06 03:07:11;;;;;;;61.75;37.38;;;;;;;4.46;97.65;98983.94;4700418;30;20061;-79
2020/12/06 03:10:15;;;;;;;71.28;37.97;;;;;;;4.45;97.71;99003.50;4699481;30;20065;-80
2020/12/06 03:13:19;;;;;;;64.35;37.35;;;;;;;4.38;98.01;98986.41;4700187;30;20447;-76
2020/12/06 03:16:24;;;;;;;71.57;38.38;;;;;;;4.37;98.37;98992.66;4700183;30;20515;-80
2020/12/06 03:19:28;;;;;;;70.22;38.60;;;;;;;4.42;98.48;98989.66;4700103;30;20064;-81
2020/12/06 03:22:32;;;;;;;72.82;36.85;;;;;;;4.44;98.44;98988.53;4699480;30;20078;-80
2020/12/06 03:25:37;;;;;;;60.10;37.85;;;;;;;4.49;98.53;99004.91;4701242;30;20064;-81
2020/12/06 03:28:41;;;;;;;76.53;41.03;;;;;;;4.51;98.51;98997.69;4702847;30;20064;-80
2020/12/06 03:31:46;;;;;;;70.03;38.45;;;;;;;4.53;98.44;98995.72;4702928;30;20057;-81
2020/12/06 03:34:50;;;;;;;68.32;41.08;;;;;;;4.52;98.46;98993.19;4703101;30;20068;-80
2020/12/06 03:37:54;;;;;;;67.70;38.97;;;;;;;4.52;98.29;98991.38;4703241;30;20509;-80
2020/12/06 03:40:59;;;;;;;68.78;39.17;;;;;;;4.50;98.36;98988.00;4703377;30;20076;-81
2020/12/06 03:44:03;;;;;;;77.57;39.75;;;;;;;4.51;98.40;98994.19;4703342;30;20056;-81
2020/12/06 03:47:08;;;;;;;71.07;39.35;;;;;;;4.47;98.52;98996.25;4702824;30;20053;-81
2020/12/06 03:50:13;;;;;;;75.97;40.22;;;;;;;4.46;98.51;98994.56;4702809;30;20054;-81
2020/12/06 03:53:17;;;;;;;72.93;41.38;;;;;;;4.47;98.42;99012.19;4702804;30;20057;-79
2020/12/06 03:56:22;;;;;;;75.72;40.63;;;;;;;4.51;98.61;99010.97;4712181;30;20064;-80
2020/12/06 03:59:26;;;;;;;74.40;41.00;;;;;;;4.49;98.63;99014.72;4711650;30;20084;-80
2020/12/06 04:02:31;;;;;;;70.72;40.55;;;;;;;4.50;98.79;98998.63;4712071;30;20068;-81
2020/12/06 04:05:35;;;;;;;80.35;42.13;;;;;;;4.52;98.91;99003.81;4702476;30;20056;-80
2020/12/06 04:08:39;;;;;;;82.57;41.97;;;;;;;4.54;98.52;98981.47;4702274;30;20072;-80
2020/12/06 04:11:44;;;;;;;71.47;40.97;;;;;;;4.47;98.44;98959.03;4702748;30;20518;-80
2020/12/06 04:14:48;;;;;;;73.95;41.38;;;;;;;4.46;98.57;98951.22;4702470;30;20497;-80
2020/12/06 04:17:52;;;;;;;77.00;38.88;;;;;;;4.50;98.82;98971.22;4702659;30;20061;-80
2020/12/06 04:20:57;;;;;;;70.03;38.60;;;;;;;4.50;98.48;98993.31;4702087;30;20057;-80
2020/12/06 04:24:01;;;;;;;73.82;40.40;;;;;;;4.48;98.87;99002.41;4702311;30;20065;-80
2020/12/06 04:27:05;;;;;;;59.08;36.50;;;;;;;4.52;98.66;98986.06;4702439;30;20076;-80
2020/12/06 04:30:10;;;;;;;62.63;37.40;;;;;;;4.53;98.57;98971.81;4702333;30;20052;-79
2020/12/06 04:33:14;;;;;;;61.13;35.38;;;;;;;4.50;98.38;98965.91;4702501;30;20086;-79
2020/12/06 04:36:19;;;;;;;61.67;34.60;;;;;;;4.54;98.37;98972.66;4701962;30;20061;-80
2020/12/06 04:39:23;;;;;;;61.80;33.50;;;;;;;4.55;98.36;98959.25;4702076;30;20060;-79
2020/12/06 04:42:27;;;;;;;65.15;35.30;;;;;;;4.56;98.49;98960.09;4711251;30;20410;-80
2020/12/06 04:45:32;;;;;;;61.50;34.45;;;;;;;4.53;98.10;98990.41;4701935;30;20488;-80
2020/12/06 04:48:39;;;;;;;64.18;34.30;;;;;;;4.54;98.16;99009.88;4701970;30;20065;-80
2020/12/06 04:51:49;;;;;;;59.20;33.30;;;;;;;4.54;98.24;99013.34;4701841;30;20065;-80
2020/12/06 04:55:03;;;;;;;59.10;33.03;;;;;;;4.57;98.54;99014.91;4701824;30;20064;-80
2020/12/06 04:58:08;;;;;;;65.85;33.25;;;;;;;4.57;97.92;99013.09;4710658;30;20504;-80
2020/12/06 05:01:14;;;;;;;62.80;32.03;;;;;;;4.62;98.07;99011.88;4701587;30;20056;-80
2020/12/06 05:04:20;;;;;;;56.17;31.58;;;;;;;4.57;97.78;98975.03;4711112;30;20053;-80
2020/12/06 05:07:27;;;;;;;60.22;29.10;;;;;;;4.52;98.01;98975.44;4701702;30;20056;-81
2020/12/06 05:10:40;;;;;;;58.90;30.05;;;;;;;4.54;97.92;98970.00;4701434;30;20403;-79
2020/12/06 05:13:45;;;;;;;51.00;28.02;;;;;;;4.49;97.83;98962.41;4701420;30;20057;-80
2020/12/06 05:16:51;;;;;;;57.80;30.10;;;;;;;4.51;98.00;98978.25;4701349;30;20506;-80
2020/12/06 05:20:11;;;;;;;65.88;31.02;;;;;;;4.48;97.92;98994.44;4701653;30;20069;-80
2020/12/06 05:23:17;;;;;;;61.78;30.00;;;;;;;4.51;98.08;98979.09;4710658;30;20057;-80
2020/12/06 05:26:21;;;;;;;62.28;30.63;;;;;;;4.47;97.94;98974.97;4701355;30;20065;-79
2020/12/06 05:29:28;;;;;;;68.70;31.60;;;;;;;4.49;98.10;98957.09;4701230;30;20072;-80
2020/12/06 05:32:33;;;;;;;72.05;30.92;;;;;;;4.45;98.03;98944.22;4701234;30;20394;-80
2020/12/06 05:35:41;;;;;;;74.72;31.30;;;;;;;4.45;97.88;98933.59;4701154;30;20497;-80
2020/12/06 05:38:45;;;;;;;72.03;32.05;;;;;;;4.47;97.84;98905.06;4701246;30;20064;-80
2020/12/06 05:41:49;;;;;;;75.80;31.70;;;;;;;4.42;98.15;98913.44;4701152;30;20517;-80
2020/12/06 05:44:57;;;;;;;70.72;32.90;;;;;;;4.38;97.84;98911.19;4701202;30;20076;-80
2020/12/06 05:48:05;;;;;;;70.13;33.47;;;;;;;4.40;97.98;98931.31;4700835;30;20060;-80
2020/12/06 05:51:11;;;;;;;66.93;31.30;;;;;;;4.43;97.93;98920.44;4700982;30;20412;-80
2020/12/06 05:54:21;;;;;;;66.10;32.42;;;;;;;4.40;98.44;98907.41;4700625;30;20077;-80
2020/12/06 05:57:28;;;;;;;79.05;31.42;;;;;;;4.34;98.29;98905.31;4700873;30;20061;-80
2020/12/06 06:00:32;;;;;;;73.70;32.78;;;;;;;4.36;98.03;98916.63;4700468;30;20061;-80
2020/12/06 06:03:40;;;;;;;65.80;31.75;;;;;;;4.40;98.39;98910.06;4700718;30;20056;-80
2020/12/06 06:06:47;;;;;;;76.15;32.60;;;;;;;4.39;98.51;98907.56;4709894;30;20394;-80
2020/12/06 06:10:02;;;;;;;67.10;31.88;;;;;;;4.36;98.10;98910.47;4700729;30;20057;-80
2020/12/06 06:13:08;;;;;;;72.00;34.90;;;;;;;4.37;98.33;98918.28;4700627;30;20145;-80
2020/12/06 06:16:14;;;;;;;64.28;31.40;;;;;;;4.33;97.97;98922.19;4700550;30;20060;-80
2020/12/06 06:19:21;;;;;;;70.43;33.45;;;;;;;4.32;98.28;98920.50;4700889;30;20068;-80
2020/12/06 06:22:33;;;;;;;65.38;31.50;;;;;;;4.33;98.00;98919.53;4700471;30;20546;-79
2020/12/06 06:25:37;;;;;;;57.85;32.08;;;;;;;4.35;98.10;98903.47;4700245;30;20091;-80
2020/12/06 06:28:43;;;;;;;58.20;30.70;;;;;;;4.36;98.39;98889.22;4700746;30;20426;-79
2020/12/06 06:31:52;;;;;;;65.95;31.70;;;;;;;4.30;97.73;98889.72;4700667;30;20098;-80
2020/12/06 06:34:56;;;;;;;60.17;32.08;;;;;;;4.33;97.85;98924.00;4709352;30;20053;-79
2020/12/06 06:38:01;;;;;;;60.88;32.50;;;;;;;4.31;98.05;98958.69;4700558;30;20080;-80
2020/12/06 06:41:07;;;;;;;57.10;31.27;;;;;;;4.32;98.13;98962.19;4709745;30;20501;-80
2020/12/06 06:44:13;;;;;;;59.97;32.65;;;;;;;4.30;98.26;98962.28;4700752;30;20060;-80
2020/12/06 06:47:18;;;;;;;58.30;31.17;;;;;;;4.30;97.69;98962.28;4700433;30;20076;-80
2020/12/06 06:50:24;;;;;;;65.63;32.60;;;;;;;4.35;98.15;98927.38;4700720;30;20498;-80
2020/12/06 06:53:29;;;;;;;60.72;32.75;;;;;;;4.35;97.86;98922.06;4700695;30;20387;-79
2020/12/06 06:56:48;;;;;;;58.25;31.85;;;;;;;4.37;98.08;98942.19;4700671;30;20398;-80
2020/12/06 06:59:54;;;;;;;55.88;33.55;;;;;;;4.27;98.18;98920.03;4709928;30;20057;-76
2020/12/06 07:02:59;;;;;;;68.30;36.50;;;;;;;4.21;98.09;98903.81;4703817;30;20484;-76
2020/12/06 07:06:04;;;;;;;74.72;39.13;;;;;;;4.15;98.27;98907.00;4712862;30;20056;-76
2020/12/06 07:09:09;;;;;;;76.38;37.65;;;;;;;4.15;98.68;98899.03;4703656;30;20490;-77
2020/12/06 07:12:13;;;;;;;72.72;40.45;;;;;;;4.18;98.47;98888.97;4712902;30;20067;-77
2020/12/06 07:15:19;;;;;;;74.70;39.40;;;;;;;4.30;98.66;98864.03;4703247;30;20061;-80
2020/12/06 07:18:24;;;;;;;62.35;36.50;;;;;;;4.37;98.82;98854.56;4703533;30;20068;-76
2020/12/06 07:21:36;;;;;;;64.45;38.42;;;;;;;4.46;98.82;98845.81;4703031;30;20061;-77
2020/12/06 07:24:41;;;;;;;57.63;35.35;;;;;;;4.57;98.59;98831.56;4703764;30;20064;-81
2020/12/06 07:27:46;;;;;;;53.30;34.05;;;;;;;4.61;98.65;98859.56;4703534;30;20060;-80
2020/12/06 07:30:51;;;;;;;57.47;36.28;;;;;;;4.67;98.23;98895.41;4703420;30;20524;-80
2020/12/06 07:33:55;;;;;;;61.53;35.80;;;;;;;4.78;98.33;98917.41;4703312;30;20053;-79
2020/12/06 07:37:01;;;;;;;52.40;34.47;;;;;;;4.78;98.31;98913.91;4702731;30;20061;-80
2020/12/06 07:40:09;;;;;;;49.70;33.25;;;;;;;4.80;97.86;98898.66;4712252;30;20057;-80
2020/12/06 07:43:14;;;;;;;47.38;32.47;;;;;;;4.77;97.58;98917.50;4703129;30;20057;-80
2020/12/06 07:46:20;;;;;;;45.30;31.95;;;;;;;4.81;97.37;98925.13;4702829;30;20061;-80
2020/12/06 07:49:24;;;;;;;50.45;32.90;;;;;;;4.85;97.24;98931.00;4703012;30;20390;-80
2020/12/06 07:52:34;;;;;;;49.97;31.80;;;;;;;4.83;97.25;98923.16;4712239;30;20520;-81
2020/12/06 07:55:41;;;;;;;45.28;30.33;;;;;;;4.85;96.81;98925.69;4703031;30;20052;-81
2020/12/06 07:59:20;;;;;;;45.83;32.08;;;;;;;4.78;96.73;98927.19;4712283;30;20068;-79
2020/12/06 08:02:27;;;;;;;40.80;29.73;;;;;;;4.68;96.63;98924.50;4702158;30;20057;-79
2020/12/06 08:05:37;;;;;;;62.25;43.42;;;;;;;4.63;96.60;98901.94;4702814;30;20056;-80
2020/12/06 08:08:45;;;;;;;76.22;55.15;;;;;;;4.68;96.70;98919.16;4712060;30;20061;-78
2020/12/06 08:11:52;;;;;;;42.45;29.73;;;;;;;4.92;96.94;98921.50;4702009;30;20065;-79
2020/12/06 08:15:04;;;;;;;37.90;29.45;;;;;;;4.97;96.96;98919.28;4702652;30;20399;-80
2020/12/06 08:18:14;;;;;;;39.78;29.98;;;;;;;5.05;96.02;98935.41;4711836;30;20060;-80
2020/12/06 08:21:18;;;;;;;40.40;29.48;;;;;;;5.11;95.55;98951.66;4702309;30;20057;-81
2020/12/06 08:24:23;;;;;;;38.80;29.10;;;;;;;4.96;94.89;98960.97;4702242;30;20057;-80
2020/12/06 08:27:28;;;;;;;39.33;29.58;;;;;;;5.03;94.42;98951.50;4702452;30;20056;-81
2020/12/06 08:30:32;;;;;;;38.65;29.92;;;;;;;5.04;94.13;98936.38;4701008;30;20060;-77
2020/12/06 08:33:39;;;;;;;36.85;28.65;;;;;;;5.03;94.11;98927.59;4702235;30;20056;-77
2020/12/06 08:36:44;;;;;;;38.55;28.80;;;;;;;5.01;93.98;98937.47;4701027;30;20064;-78
2020/12/06 08:39:50;;;;;;;33.92;27.85;;;;;;;4.98;94.04;98943.09;4804024;24;20094;-80
2020/12/06 08:42:58;;;;;;;35.22;28.02;;;;;;;4.97;93.78;98941.41;4762040;30;20055;-81
2020/12/06 08:46:07;;;;;;;37.72;30.67;;;;;;;4.98;93.65;98942.25;4766736;30;20083;-80
2020/12/06 08:49:17;;;;;;;38.67;30.65;;;;;;;4.75;93.52;98943.41;4755171;30;20062;-79
2020/12/06 08:52:21;;;;;;;46.50;32.83;;;;;;;4.67;94.02;98948.56;4764550;30;20059;-80
2020/12/06 08:55:36;;;;;;;41.65;31.98;;;;;;;4.68;94.59;98958.19;4765720;30;20055;-81
2020/12/06 08:58:40;;;;;;;43.75;32.92;;;;;;;4.65;94.73;98953.13;4768724;30;20063;-78
2020/12/06 09:01:52;;;;;;;45.50;32.47;;;;;;;4.63;94.71;98974.53;4771251;30;20404;-77
2020/12/06 09:04:55;;;;;;;46.47;34.53;;;;;;;4.66;94.61;98965.44;4763310;30;20050;-78
2020/12/06 09:08:00;;;;;;;44.55;31.00;;;;;;;4.71;95.14;98969.41;4761280;30;20055;-77
2020/12/06 09:11:04;;;;;;;47.30;31.52;;;;;;;4.70;94.82;98969.53;4753643;30;20491;-78
2020/12/06 09:14:08;;;;;;;45.75;32.65;;;;;;;4.70;94.88;98961.53;4769544;30;20054;-82
2020/12/06 09:17:12;;;;;;;47.83;34.17;;;;;;;4.64;94.60;98956.78;4771096;30;20575;-77
2020/12/06 09:20:16;;;;;;;45.22;32.92;;;;;;;4.71;95.02;98972.06;4770744;30;20059;-78
2020/12/06 09:23:21;;;;;;;44.35;33.00;;;;;;;4.75;95.07;98977.94;4770461;30;20055;-79
2020/12/06 09:26:25;;;;;;;44.40;32.47;;;;;;;4.75;95.57;98972.63;4765098;30;20468;-80
2020/12/06 09:29:30;;;;;;;41.03;31.13;;;;;;;4.79;95.62;98958.13;4762421;30;20075;-79
2020/12/06 09:32:34;;;;;;;;;;;;;;;4.73;95.50;98966.59;4765039;30;20061;-78
2020/12/06 09:35:38;;;;;;;40.60;28.88;;;;;;;4.80;95.60;98954.47;4768100;30;19922;-80
2020/12/06 09:38:43;;;;;;;36.70;28.65;;;;;;;4.85;95.47;98952.25;4760110;30;20059;-79
2020/12/06 09:41:47;;;;;;;34.85;28.17;;;;;;;4.81;95.45;98967.66;4761144;30;20048;-78
2020/12/06 09:44:52;;;;;;;35.08;27.30;;;;;;;4.86;95.38;98965.44;4766310;30;20543;-80
2020/12/06 09:47:58;;;;;;;30.00;24.13;;;;;;;4.90;94.90;98968.66;4760897;30;20061;-80
2020/12/06 09:51:04;;;;;;;29.85;25.17;;;;;;;4.95;94.95;98969.09;4760835;30;20063;-80
2020/12/06 09:54:08;;;;;;;26.80;22.77;;;;;;;4.96;94.53;98965.47;4762270;30;20055;-79
2020/12/06 09:57:12;;;;;;;27.85;24.85;;;;;;;4.90;94.81;98969.50;4761063;30;20503;-80
2020/12/06 10:00:17;;;;;;;26.63;22.27;;;;;;;4.95;94.39;98971.75;4762078;30;20059;-79
2020/12/06 10:03:21;;;;;;;22.83;20.25;;;;;;;4.98;94.32;98966.19;4768554;30;20423;-78
2020/12/06 10:06:25;;;;;;;24.15;20.65;;;;;;;4.98;94.16;98958.19;4762310;30;20055;-80
2020/12/06 10:09:31;;;;;;;26.35;21.20;;;;;;;5.01;94.15;98972.06;4752649;30;20068;-80
2020/12/06 10:12:35;;;;;;;25.70;21.77;;;;;;;5.02;94.13;98976.41;4752784;30;20064;-79
2020/12/06 10:15:42;;;;;;;22.85;19.83;;;;;;;5.03;94.19;98963.97;4752989;30;20511;-81
2020/12/06 10:18:46;;;;;;;20.42;18.30;;;;;;;5.09;94.18;98950.09;4752626;30;20183;-80
2020/12/06 10:21:51;;;;;;;20.20;18.10;;;;;;;5.13;93.54;98946.22;4752852;30;20052;-79
2020/12/06 10:24:55;;;;;;;19.60;17.52;;;;;;;5.21;93.73;98938.38;4765378;30;20510;-78
2020/12/06 10:28:00;;;;;;;20.08;17.35;;;;;;;5.20;93.73;98934.91;4761430;30;20601;-81
2020/12/06 10:31:04;;;;;;;18.13;16.23;;;;;;;5.29;93.55;98917.28;4770171;30;20050;-81
2020/12/06 10:34:08;;;;;;;22.33;18.77;;;;;;;5.20;92.97;98904.81;4770707;30;20050;-81
2020/12/06 10:37:13;;;;;;;18.15;16.33;;;;;;;5.24;92.71;98896.41;4774139;30;20403;-80
2020/12/06 10:40:17;;;;;;;19.33;17.42;;;;;;;5.07;92.95;98881.13;4776829;30;20067;-81
2020/12/06 10:43:22;;;;;;;18.50;16.60;;;;;;;5.15;92.84;98883.09;4773794;30;20082;-81
2020/12/06 10:46:27;;;;;;;18.77;16.88;;;;;;;5.01;92.80;98872.84;4773955;30;20395;-81
2020/12/06 10:49:31;;;;;;;19.15;17.15;;;;;;;4.96;93.53;98867.09;4773845;30;20435;-78
2020/12/06 10:52:36;;;;;;;19.13;17.13;;;;;;;5.12;94.02;98868.25;4773466;30;20511;-76
2020/12/06 10:55:40;;;;;;;19.70;17.60;;;;;;;5.19;93.90;98879.19;4772617;30;20063;-81
2020/12/06 10:58:44;;;;;;;16.65;15.02;;;;;;;5.05;93.17;98876.91;4773539;30;20403;-80
2020/12/06 11:01:49;;;;;;;16.02;14.35;;;;;;;4.99;93.45;98885.41;4773038;30;20054;-80
2020/12/06 11:04:53;;;;;;;17.95;16.15;;;;;;;5.02;93.30;98862.06;4769826;30;20059;-80
2020/12/06 11:07:58;;;;;;;17.77;16.08;;;;;;;5.13;93.67;98851.34;4764891;30;20408;-78
2020/12/06 11:11:02;;;;;;;17.27;15.48;;;;;;;5.25;93.75;98833.44;4764541;30;20519;-79
2020/12/06 11:14:06;;;;;;;16.42;14.82;;;;;;;5.34;93.84;98811.28;4764749;30;20051;-79
2020/12/06 11:17:11;;;;;;;17.63;15.38;;;;;;;5.46;93.65;98815.50;4761395;30;20051;-78
2020/12/06 11:20:15;;;;;;;15.77;14.10;;;;;;;5.51;92.75;98809.75;4764488;30;20075;-80
2020/12/06 11:23:19;;;;;;;13.82;12.43;;;;;;;5.57;92.74;98791.41;4764656;30;20067;-80
2020/12/06 11:26:24;;;;;;;;;;;;;;;5.51;92.82;98781.31;4768465;30;20051;-80
2020/12/06 11:29:30;;;;;;;10.68;9.57;;;;;;;5.55;93.05;98772.09;4763885;30;19922;-81
2020/12/06 11:32:34;;;;;;;11.68;10.48;;;;;;;5.63;92.70;98764.22;4766244;30;20059;-79
2020/12/06 11:35:38;;;;;;;10.75;9.65;;;;;;;5.64;92.67;98754.41;4763388;30;20051;-80
2020/12/06 11:38:45;;;;;;;10.48;9.45;;;;;;;5.70;92.55;98748.53;4764680;30;20051;-80
2020/12/06 11:41:55;;;;;;;10.98;9.88;;;;;;;5.81;92.03;98727.91;4762511;30;20525;-80
2020/12/06 11:44:59;;;;;;;8.90;8.00;;;;;;;5.92;92.15;98728.75;4764692;30;20075;-80
2020/12/06 11:48:04;;;;;;;9.20;8.30;;;;;;;6.08;91.61;98732.47;4762701;30;20393;-79
2020/12/06 11:51:08;;;;;;;8.98;7.65;;;;;;;6.19;91.15;98723.47;4763001;30;20535;-79
2020/12/06 11:54:13;;;;;;;7.72;6.93;;;;;;;6.29;90.75;98703.78;4766047;30;20051;-80
2020/12/06 11:57:17;;;;;;;6.82;5.57;;;;;;;6.49;90.17;98686.69;4763189;30;20051;-80
2020/12/06 12:00:22;;;;;;;5.60;4.95;;;;;;;6.65;89.88;98672.69;4764228;30;20047;-80
2020/12/06 12:03:28;;;;;;;6.72;4.85;;;;;;;6.73;88.88;98662.13;4764188;30;20051;-80
2020/12/06 12:06:32;;;;;;;4.90;3.95;;;;;;;6.83;88.69;98644.22;4770649;30;20411;-80
2020/12/06 12:09:37;;;;;;;6.05;3.90;;;;;;;6.92;88.64;98656.63;4763476;30;20066;-80
2020/12/06 12:12:42;;;;;;;4.68;3.90;;;;;;;6.83;88.89;98657.56;4756260;30;20055;-79
2020/12/06 12:15:47;;;;;;;4.45;3.45;;;;;;;6.86;88.78;98651.91;4762734;30;20055;-79
2020/12/06 12:18:52;;;;;;;3.65;3.05;;;;;;;6.75;88.77;98657.47;4761580;30;20051;-81
2020/12/06 12:21:56;;;;;;;4.10;3.60;;;;;;;6.68;89.84;98674.22;4771528;30;20129;-79
2020/12/06 12:25:01;;;;;;;5.20;4.15;;;;;;;6.55;90.57;98669.25;4763513;30;20055;-80
2020/12/06 12:28:05;;;;;;;4.18;3.45;;;;;;;6.59;90.57;98656.47;4762030;30;20063;-80
2020/12/06 12:31:09;;;;;;;4.90;4.13;;;;;;;6.44;90.92;98643.66;4772757;30;20058;-79
2020/12/06 12:34:16;;;;;;;4.07;3.30;;;;;;;6.41;91.94;98635.13;4755805;30;20071;-79
2020/12/06 12:37:20;;;;;;;4.22;3.30;;;;;;;6.42;91.55;98650.97;4756970;30;20051;-78
2020/12/06 12:40:25;;;;;;;5.88;3.90;;;;;;;6.29;92.31;98639.84;4759095;30;20055;-79
2020/12/06 12:43:29;;;;;;;4.82;3.38;;;;;;;6.42;91.88;98650.13;4756286;30;20059;-77
2020/12/06 12:46:35;;;;;;;5.57;3.15;;;;;;;6.38;91.79;98664.75;4763156;30;20052;-78
2020/12/06 12:49:41;;;;;;;5.82;3.65;;;;;;;6.36;91.76;98664.06;4762142;30;20052;-80
2020/12/06 12:52:47;;;;;;;4.50;3.25;;;;;;;6.29;92.23;98663.81;4763406;30;20055;-79
2020/12/06 12:55:51;;;;;;;4.47;3.35;;;;;;;6.21;92.68;98652.22;4766921;30;20047;-78
2020/12/06 12:58:56;;;;;;;4.97;4.00;;;;;;;6.27;92.32;98633.00;4767967;30;20063;-78
2020/12/06 13:02:00;;;;;;;5.82;4.00;;;;;;;6.36;92.64;98627.59;4762349;30;20055;-79
2020/12/06 13:05:05;;;;;;;4.97;3.28;;;;;;;6.51;92.45;98630.56;4762403;30;20068;-78
2020/12/06 13:08:10;;;;;;;4.65;3.50;;;;;;;6.60;92.20;98631.47;4762698;30;20051;-81
2020/12/06 13:11:13;;;;;;;;;;;;;;;6.58;91.67;98644.97;4763758;30;20063;-80
2020/12/06 13:14:18;;;;;;;;;;;;;;;6.58;91.79;98642.31;4762950;30;19941;-79
2020/12/06 13:17:23;;;;;;;4.10;3.40;;;;;;;6.73;91.65;98643.47;4761502;30;19922;-77
2020/12/06 13:20:27;;;;;;;4.65;3.42;;;;;;;6.61;91.29;98649.16;4760845;30;20061;-78
2020/12/06 13:23:31;;;;;;;;;;;;;;;6.54;91.01;98654.28;4761037;30;20051;-80
2020/12/06 13:26:36;;;;;;;;;;;;;;;6.59;90.91;98665.31;4761706;30;19922;-85
2020/12/06 13:29:40;;;;;;;5.95;4.50;;;;;;;6.63;90.93;98674.69;4763283;30;19930;-84
2020/12/06 13:32:45;;;;;;;6.60;4.45;;;;;;;6.62;91.55;98666.84;4762916;30;20404;-79
2020/12/06 13:35:49;;;;;;;5.95;4.28;;;;;;;6.66;91.94;98657.53;4761410;30;20059;-77
2020/12/06 13:38:54;;;;;;;4.00;3.15;;;;;;;6.70;91.85;98656.25;4762984;30;20416;-81
2020/12/06 13:42:04;;;;;;;3.67;2.80;;;;;;;6.64;92.32;98659.53;4762348;30;20051;-80
2020/12/06 13:45:08;;;;;;;7.65;5.82;;;;;;;6.69;92.30;98660.72;4760293;30;20055;-80
2020/12/06 13:48:13;;;;;;;9.18;6.15;;;;;;;6.58;92.59;98663.63;4761567;30;20059;-81
2020/12/06 13:51:17;;;;;;;19.02;13.80;;;;;;;6.55;92.63;98655.94;4761887;30;20075;-80
2020/12/06 13:54:21;;;;;;;10.80;8.48;;;;;;;6.50;92.61;98650.22;4762417;30;20088;-80
2020/12/06 13:57:26;;;;;;;6.30;5.15;;;;;;;6.43;92.97;98649.13;4755358;30;20055;-79
2020/12/06 14:00:30;;;;;;;6.65;5.53;;;;;;;6.44;92.94;98650.81;4759135;30;20471;-78
2020/12/06 14:03:35;;;;;;;6.88;5.57;;;;;;;6.38;93.53;98657.59;4760272;30;20069;-81
2020/12/06 14:06:39;;;;;;;6.60;5.50;;;;;;;6.36;93.34;98670.22;4757835;30;20527;-81
2020/12/06 14:09:46;;;;;;;6.30;5.15;;;;;;;6.33;93.55;98659.00;4767749;30;20069;-82
2020/12/06 14:12:50;;;;;;;6.60;5.60;;;;;;;6.38;93.71;98662.91;4768695;30;20518;-80
2020/12/06 14:15:55;;;;;;;6.97;4.97;;;;;;;6.32;93.72;98649.38;4763424;30;20510;-79
2020/12/06 14:18:59;;;;;;;6.97;6.22;;;;;;;6.09;94.25;98638.28;4765058;30;20423;-81
2020/12/06 14:22:04;;;;;;;9.65;7.72;;;;;;;6.13;94.34;98652.13;4769780;30;20063;-80
2020/12/06 14:25:08;;;;;;;11.63;9.77;;;;;;;6.16;94.89;98654.50;4740944;30;20055;-80
2020/12/06 14:28:14;;;;;;;13.80;11.60;;;;;;;6.15;95.08;98663.44;4752908;30;20063;-81